Justus, Ohio
Current Conditions -  °F | °C
As of 10:51 AM on Sunday 21 Dec 2014 (Local Time) from KCAK Reporting Station
Haze Haze  
Wind Chill: 30°   Ceiling: 2000
Heat Index: 30°   Visibility: 6mi
Dew Point: 21°   Wind: 3mph
Humidity: 69%   Direction: 150°SSE
Pressure: 30.31"   Gusts: NA
Location:  40.7079°N, 81.5547°W
Report Text: KCAK 211551Z 15003KT 6SM HZ OVC020 M01/M06 A3031 RMK AO2 SLP277 T10111061
Loading
Personal Weather Stations






























Interactive Weather Map New forecast layout! Learn more

10-Day Weather Forecast

Advertisements
Track Severe Weather on mobile